Princeton, NJ (08540)

10:34 PM EST on December 04, 2016 (GMT -0500)
Princeton Borough | | Change Station

Elev 154 ft 40.36 °N, 74.65 °W | Updated 5 seconds ago

Mostly Cloudy
Mostly Cloudy
38.7 °F
Feels Like 39 °F
N
0.0
Wind Variable Wind from NNE
Gusts 0.0 mph

Today
High -- | Low -- °F
--% Chance of Precip.
Yesterday
High -- | Low -- °F
Precip. -- in
Pressure 30.12 in
Visibility 10.0 miles
Clouds Mostly Cloudy 12000 ft
Windchill 39 °F
Dew Point 30 °F
Humidity 70%
Rainfall 0.00 in
Snow Depth Not available.
7:05 AM 4:32 PM
Waxing Crescent, 28% visible
METAR KTTN 050253Z 00000KT 10SM BKN120 04/M03 A3013 RMK AO2 SLP198 T00441028 58015
Pressure 30.12 in
Visibility 10.0 miles
Clouds Mostly Cloudy 12000 ft
Windchill 39 °F
Dew Point 30 °F
Humidity 70%
Rainfall 0.00 in
Snow Depth Not available.
7:05 AM 4:32 PM
Waxing Crescent, 28% visible
METAR KTTN 050253Z 00000KT 10SM BKN120 04/M03 A3013 RMK AO2 SLP198 T00441028 58015

10-Day Weather Forecast

Almanac

Astronomy

Dec. 04, 2016 Rise Set
Actual Time
Civil Twilight
Nautical Twilight
Astronomical Twilight
Moon
Length of Visible Light
Length of Day
Tomorrow will be .
, % of the Moon is Illuminated

Today's Extremes

State Highs State Lows

Community

WunderPhotos

Upload Photos

1,955,752 photos uploaded!

WunderBlog® & News

Nearby

Air Quality

  Air Quality AQ Index Pollutant
Not available.

Snow Depth

Station Depth Elevation

Earthquake Activity

City Distance Mag. Time & Date
Minimum magnitude displayed is 2.5.

Coastal Water Temperatures

Place Temperature

Stations

Nearby Weather Stations

Station Location Temp. Windchill Dew Point Humidity Wind Precip. Elev Updated Type
                   

Watches & Warnings

There are currently no watches in effect.